Time;durP1;ratioP1;P1;durP2;ratioP2;P2;SDS_P1;SDS_P2;PMS_P1;PMS_P2;Temp;Humidity;BMP_temperature;BMP_pressure;BME280_temperature;BME280_humidity;BME280_pressure;Samples;Min_cycle;Max_cycle;Signal;HPM_P1;HPM_P2
2023/07/04 00:00:29;;;;;;;17.40;11.57;;;20.00;99.90;;;;;;5011976;28;20034;-75
2023/07/04 00:02:55;;;;;;;20.67;13.20;;;19.80;99.90;;;;;;5012381;28;20396;-75
2023/07/04 00:05:23;;;;;;;16.15;13.93;;;19.80;99.90;;;;;;5012657;28;20037;-76
2023/07/04 00:07:49;;;;;;;18.23;13.70;;;19.90;99.90;;;;;;5012707;28;20057;-75
2023/07/04 00:10:15;;;;;;;16.90;15.18;;;19.90;99.90;;;;;;5012423;28;20407;-75
2023/07/04 00:12:41;;;;;;;15.75;14.23;;;20.00;99.90;;;;;;5012653;28;20102;-75
2023/07/04 00:15:09;;;;;;;18.02;14.18;;;20.00;99.90;;;;;;5011911;28;20050;-75
2023/07/04 00:17:35;;;;;;;19.30;16.63;;;20.00;99.90;;;;;;4992531;28;20038;-75
2023/07/04 00:20:03;;;;;;;15.63;14.13;;;19.80;99.90;;;;;;4993027;28;20515;-75
2023/07/04 00:22:29;;;;;;;20.92;15.32;;;19.80;99.90;;;;;;5012179;28;20379;-76
2023/07/04 00:24:56;;;;;;;16.58;13.30;;;19.80;99.90;;;;;;5012516;28;20026;-75
2023/07/04 00:27:23;;;;;;;18.08;12.13;;;19.80;99.90;;;;;;5012400;28;20057;-74
2023/07/04 00:29:50;;;;;;;18.95;12.50;;;19.80;99.90;;;;;;5012112;28;20102;-75
2023/07/04 00:32:16;;;;;;;16.17;10.48;;;19.80;99.90;;;;;;5011527;28;20502;-75
2023/07/04 00:34:45;;;;;;;15.88;9.93;;;19.70;99.90;;;;;;5012452;28;20391;-75
2023/07/04 00:37:12;;;;;;;17.67;11.23;;;19.70;99.90;;;;;;5012009;28;20026;-76
2023/07/04 00:39:39;;;;;;;19.08;11.90;;;19.60;99.90;;;;;;5012421;28;20026;-75
2023/07/04 00:42:07;;;;;;;19.02;11.30;;;19.60;99.90;;;;;;5012208;28;20033;-75
2023/07/04 00:44:37;;;;;;;19.23;10.98;;;19.70;99.90;;;;;;5012375;28;20042;-76
2023/07/04 00:47:14;;;;;;;16.42;10.13;;;19.70;99.90;;;;;;5011695;28;20038;-75
2023/07/04 00:49:44;;;;;;;16.25;9.25;;;19.70;99.90;;;;;;5026776;28;20415;-75
2023/07/04 00:52:23;;;;;;;14.00;9.98;;;19.70;99.90;;;;;;5047664;28;20124;-75
2023/07/04 00:55:00;;;;;;;19.02;11.02;;;19.80;99.90;;;;;;5031050;28;20058;-75
2023/07/04 00:57:31;;;;;;;22.30;11.05;;;19.80;99.90;;;;;;5047386;28;20399;-76
2023/07/04 00:59:58;;;;;;;;;;;19.80;99.90;;;;;;5016441;28;20033;-75
2023/07/04 01:02:30;;;;;;;19.85;9.32;;;19.80;99.90;;;;;;5015335;28;19913;-75
2023/07/04 01:04:56;;;;;;;16.95;9.13;;;19.80;99.90;;;;;;5016006;28;20030;-76
2023/07/04 01:07:31;;;;;;;16.58;9.18;;;19.80;99.90;;;;;;5014446;28;20061;-75
2023/07/04 01:10:18;;;;;;;16.80;10.63;;;19.80;99.90;;;;;;5014968;28;20026;-75
2023/07/04 01:12:46;;;;;;;19.17;9.82;;;19.70;99.90;;;;;;5014926;28;20030;-75
2023/07/04 01:15:12;;;;;;;14.10;8.70;;;19.70;99.90;;;;;;5014783;28;20475;-75
2023/07/04 01:17:42;;;;;;;15.50;8.70;;;19.70;99.90;;;;;;5015900;28;20034;-75
2023/07/04 01:20:09;;;;;;;16.90;11.65;;;19.70;99.90;;;;;;5015161;28;20042;-75
2023/07/04 01:22:38;;;;;;;16.27;10.88;;;19.70;99.90;;;;;;4996094;28;20376;-75
2023/07/04 01:25:14;;;;;;;18.15;11.75;;;19.70;99.90;;;;;;5026946;28;20053;-75
2023/07/04 01:27:41;;;;;;;21.95;11.30;;;19.70;99.90;;;;;;5010464;28;20065;-75
2023/07/04 01:30:08;;;;;;;14.10;9.82;;;19.70;99.90;;;;;;5011555;28;20046;-74
2023/07/04 01:32:35;;;;;;;20.58;9.38;;;19.70;99.90;;;;;;5027855;28;20035;-75
2023/07/04 01:35:02;;;;;;;18.17;9.98;;;19.70;99.90;;;;;;5010792;28;20046;-75
2023/07/04 01:37:29;;;;;;;16.95;10.10;;;19.60;99.90;;;;;;5014938;28;20038;-76
2023/07/04 01:39:58;;;;;;;16.10;10.13;;;19.60;99.90;;;;;;5015305;28;20403;-75
2023/07/04 01:42:30;;;;;;;17.05;10.48;;;19.60;99.90;;;;;;5014678;28;20034;-75
2023/07/04 01:45:01;;;;;;;17.40;9.57;;;19.50;99.90;;;;;;5015172;28;20037;-75
2023/07/04 01:47:30;;;;;;;17.60;10.25;;;19.50;99.90;;;;;;5014420;28;20049;-75
2023/07/04 01:49:56;;;;;;;20.25;10.15;;;19.60;99.90;;;;;;5015151;28;20050;-75
2023/07/04 01:52:24;;;;;;;16.75;10.40;;;19.50;99.90;;;;;;5014791;28;20081;-75
2023/07/04 01:54:50;;;;;;;16.63;10.95;;;19.40;99.90;;;;;;5015033;28;20494;-75
2023/07/04 01:57:16;;;;;;;13.93;10.98;;;19.30;99.90;;;;;;5029996;28;20040;-75
2023/07/04 01:59:43;;;;;;;18.98;9.32;;;19.30;99.90;;;;;;5014454;28;20030;-76
2023/07/04 02:02:09;;;;;;;17.30;10.32;;;19.40;99.90;;;;;;5007464;28;20033;-76
2023/07/04 02:04:35;;;;;;;15.02;9.98;;;19.40;99.90;;;;;;5006458;28;20029;-75
2023/07/04 02:07:01;;;;;;;17.67;12.00;;;19.40;99.90;;;;;;5012892;28;20395;-75
2023/07/04 02:09:27;;;;;;;13.82;9.38;;;19.50;99.90;;;;;;5013029;28;20037;-75
2023/07/04 02:11:53;;;;;;;21.13;10.50;;;19.50;99.90;;;;;;5012693;28;20391;-76
2023/07/04 02:14:19;;;;;;;19.27;9.98;;;19.40;99.90;;;;;;5012861;28;20101;-75
2023/07/04 02:16:45;;;;;;;14.05;9.20;;;19.30;99.90;;;;;;5012316;28;20038;-75
2023/07/04 02:19:11;;;;;;;19.77;9.55;;;19.40;99.90;;;;;;5013066;28;20045;-75
2023/07/04 02:21:38;;;;;;;19.38;9.13;;;19.40;99.90;;;;;;5012656;28;20049;-75
2023/07/04 02:24:04;;;;;;;18.73;9.10;;;19.30;99.90;;;;;;5012949;28;20026;-75
2023/07/04 02:26:32;;;;;;;13.82;8.68;;;19.40;99.90;;;;;;5012457;28;20109;-75
2023/07/04 02:28:59;;;;;;;17.80;8.88;;;19.30;99.90;;;;;;5013177;28;20045;-75
2023/07/04 02:31:25;;;;;;;17.92;7.70;;;19.30;99.90;;;;;;5010715;28;20522;-75
2023/07/04 02:33:51;;;;;;;17.23;7.95;;;19.30;99.90;;;;;;5012744;28;20040;-75
2023/07/04 02:36:18;;;;;;;18.10;8.25;;;19.30;99.90;;;;;;5007413;28;20030;-75
2023/07/04 02:38:44;;;;;;;16.08;7.75;;;19.30;99.90;;;;;;5014357;28;20462;-75
2023/07/04 02:41:10;;;;;;;15.85;7.90;;;19.30;99.90;;;;;;5013267;28;20054;-75
2023/07/04 02:43:36;;;;;;;18.23;7.70;;;19.20;99.90;;;;;;5013075;28;20482;-75
2023/07/04 02:46:03;;;;;;;11.48;7.75;;;19.20;99.90;;;;;;5013661;28;20414;-74
2023/07/04 02:48:31;;;;;;;16.77;8.77;;;19.20;99.90;;;;;;5012333;28;20042;-75
2023/07/04 02:50:57;;;;;;;15.90;7.78;;;19.20;99.90;;;;;;5013792;28;20045;-76
2023/07/04 02:53:23;;;;;;;16.13;8.00;;;19.20;99.90;;;;;;5013998;28;20041;-75
2023/07/04 02:55:50;;;;;;;15.40;8.18;;;19.20;99.90;;;;;;5013294;28;20041;-75
2023/07/04 02:58:16;;;;;;;16.27;9.27;;;19.20;99.90;;;;;;5013929;28;20030;-75
2023/07/04 03:00:42;;;;;;;22.02;8.65;;;19.10;99.90;;;;;;5013124;28;20395;-75
2023/07/04 03:03:08;;;;;;;14.82;8.18;;;19.20;99.90;;;;;;5013912;28;20389;-75
2023/07/04 03:05:35;;;;;;;19.60;8.80;;;19.20;99.90;;;;;;5012360;28;20034;-75
2023/07/04 03:08:02;;;;;;;17.30;8.43;;;19.10;99.90;;;;;;5013966;28;20038;-75
2023/07/04 03:10:28;;;;;;;13.02;7.63;;;19.00;99.90;;;;;;5011972;28;20526;-75
2023/07/04 03:12:54;;;;;;;16.52;8.18;;;19.10;99.90;;;;;;5013289;28;20038;-75
2023/07/04 03:15:20;;;;;;;15.88;9.48;;;19.00;99.90;;;;;;5012977;28;20042;-74
2023/07/04 03:17:47;;;;;;;15.35;8.68;;;19.10;99.90;;;;;;5013682;28;20473;-75
2023/07/04 03:20:13;;;;;;;19.50;7.97;;;19.10;99.90;;;;;;5013279;28;20040;-74
2023/07/04 03:22:40;;;;;;;16.05;7.95;;;19.10;99.90;;;;;;5012226;28;20041;-75
2023/07/04 03:25:06;;;;;;;18.50;7.95;;;19.10;99.90;;;;;;5013175;28;20380;-75
2023/07/04 03:27:35;;;;;;;18.25;7.80;;;19.10;99.90;;;;;;5013186;28;20398;-75
2023/07/04 03:30:01;;;;;;;19.83;9.82;;;19.10;99.90;;;;;;5012040;28;20376;-74
2023/07/04 03:32:27;;;;;;;16.73;7.50;;;19.10;99.90;;;;;;5012742;28;20025;-76
2023/07/04 03:34:55;;;;;;;18.27;7.47;;;19.10;99.90;;;;;;5013478;28;20050;-75
2023/07/04 03:37:21;;;;;;;16.02;7.82;;;19.10;99.90;;;;;;5013071;28;20032;-74
2023/07/04 03:39:47;;;;;;;14.93;7.45;;;19.10;99.90;;;;;;5011786;28;20537;-75
2023/07/04 03:42:13;;;;;;;14.55;8.55;;;19.10;99.90;;;;;;5012867;28;20029;-75
2023/07/04 03:44:39;;;;;;;23.83;13.38;;;19.10;99.90;;;;;;5012160;28;20038;-75
2023/07/04 03:47:05;;;;;;;15.13;11.60;;;19.10;99.90;;;;;;5012317;28;20041;-75
2023/07/04 03:49:32;;;;;;;17.05;8.93;;;19.10;99.90;;;;;;5012749;28;20049;-75
2023/07/04 03:51:58;;;;;;;18.25;13.18;;;19.10;99.90;;;;;;5013172;28;20037;-75
2023/07/04 03:54:24;;;;;;;18.27;10.38;;;19.00;99.90;;;;;;5012578;28;20037;-75
2023/07/04 03:56:50;;;;;;;18.73;10.85;;;19.10;99.90;;;;;;5012542;28;20034;-75
2023/07/04 03:59:16;;;;;;;15.93;13.88;;;19.10;99.90;;;;;;5013061;28;20030;-75
2023/07/04 04:01:42;;;;;;;19.48;14.63;;;19.10;99.90;;;;;;5012141;28;20049;-75
2023/07/04 04:04:08;;;;;;;20.90;14.27;;;19.10;99.90;;;;;;5013420;28;20049;-75
2023/07/04 04:06:35;;;;;;;19.88;11.65;;;19.10;99.90;;;;;;5012835;28;20038;-75
2023/07/04 04:09:01;;;;;;;19.58;11.75;;;19.10;99.90;;;;;;5012473;28;20041;-75
2023/07/04 04:11:27;;;;;;;22.25;9.10;;;19.00;99.90;;;;;;5012598;28;20022;-75
2023/07/04 04:13:53;;;;;;;17.83;7.80;;;19.00;99.90;;;;;;5012617;28;20029;-75
2023/07/04 04:16:21;;;;;;;16.83;7.75;;;19.00;99.90;;;;;;5012063;28;20060;-74
2023/07/04 04:18:49;;;;;;;17.15;7.88;;;19.00;99.90;;;;;;5012744;28;20041;-76
2023/07/04 04:21:15;;;;;;;16.15;7.70;;;19.10;99.90;;;;;;5012483;28;20033;-75
2023/07/04 04:23:41;;;;;;;19.35;7.82;;;19.00;99.90;;;;;;5011990;28;20038;-75
2023/07/04 04:26:07;;;;;;;16.60;8.10;;;19.00;99.90;;;;;;5011796;28;20698;-75
2023/07/04 04:28:33;;;;;;;16.58;7.78;;;19.00;99.90;;;;;;5012490;28;20046;-75
2023/07/04 04:30:59;;;;;;;20.15;7.72;;;19.00;99.90;;;;;;5011886;28;20037;-75
2023/07/04 04:33:25;;;;;;;17.00;7.43;;;19.00;99.90;;;;;;5012510;28;20030;-75
2023/07/04 04:35:52;;;;;;;16.48;8.75;;;19.00;99.90;;;;;;5012091;28;20509;-75
2023/07/04 04:38:18;;;;;;;17.80;7.88;;;19.00;99.90;;;;;;5012249;28;20034;-75
2023/07/04 04:40:44;;;;;;;23.75;8.63;;;19.00;99.90;;;;;;5012180;28;20049;-75
2023/07/04 04:43:10;;;;;;;19.88;8.32;;;19.00;99.90;;;;;;5012355;28;20074;-75
2023/07/04 04:45:38;;;;;;;14.57;8.15;;;19.00;99.90;;;;;;5011667;28;20030;-75
2023/07/04 04:48:06;;;;;;;12.85;7.57;;;19.00;99.90;;;;;;5012208;28;20041;-75
2023/07/04 04:50:32;;;;;;;18.63;7.63;;;19.00;99.90;;;;;;5012418;28;20053;-75
2023/07/04 04:52:59;;;;;;;17.23;7.85;;;19.10;99.90;;;;;;5012095;28;20471;-75
2023/07/04 04:55:25;;;;;;;17.73;8.20;;;19.10;99.90;;;;;;5010501;28;20534;-75
2023/07/04 04:57:52;;;;;;;15.13;7.78;;;19.10;99.90;;;;;;5012448;28;20029;-75
2023/07/04 05:00:19;;;;;;;18.60;8.05;;;19.10;99.90;;;;;;5011344;28;20498;-75
2023/07/04 05:02:45;;;;;;;17.05;8.15;;;19.00;99.90;;;;;;5012158;28;20033;-75
2023/07/04 05:05:11;;;;;;;15.82;8.48;;;19.10;99.90;;;;;;5011011;28;20037;-75
2023/07/04 05:07:38;;;;;;;18.58;8.93;;;19.00;99.90;;;;;;5011981;28;20360;-76
2023/07/04 05:10:05;;;;;;;16.52;7.82;;;19.00;99.90;;;;;;5012141;28;20045;-75
2023/07/04 05:12:31;;;;;;;19.92;8.07;;;19.00;99.90;;;;;;5012055;28;20041;-75
2023/07/04 05:14:57;;;;;;;18.65;7.88;;;19.00;99.90;;;;;;5012233;28;20050;-75
2023/07/04 05:17:23;;;;;;;17.98;7.72;;;19.00;99.90;;;;;;5011586;28;20030;-74
2023/07/04 05:19:50;;;;;;;17.60;7.63;;;19.00;99.90;;;;;;5011775;28;20044;-75
2023/07/04 05:22:17;;;;;;;16.15;8.63;;;19.00;99.90;;;;;;5011734;28;20041;-75
2023/07/04 05:24:43;;;;;;;17.75;7.85;;;19.00;99.90;;;;;;5012376;28;20021;-72
2023/07/04 05:27:09;;;;;;;18.48;8.35;;;19.00;99.90;;;;;;5011952;28;20036;-75
2023/07/04 05:29:35;;;;;;;20.90;7.63;;;19.00;99.90;;;;;;5012037;28;20399;-74
2023/07/04 05:32:01;;;;;;;17.02;7.53;;;19.00;99.90;;;;;;5011064;28;20041;-73
2023/07/04 05:34:27;;;;;;;13.52;7.55;;;19.00;99.90;;;;;;5011542;28;20037;-75
2023/07/04 05:36:54;;;;;;;18.67;8.30;;;19.10;99.90;;;;;;5013985;28;20041;-75
2023/07/04 05:39:20;;;;;;;16.60;7.80;;;19.00;99.90;;;;;;5015738;28;20029;-75
2023/07/04 05:41:46;;;;;;;17.85;8.15;;;19.00;99.90;;;;;;5015094;28;20756;-76
2023/07/04 05:44:12;;;;;;;14.75;8.00;;;19.10;99.90;;;;;;5015130;28;20022;-75
2023/07/04 05:46:38;;;;;;;16.40;7.28;;;19.10;99.90;;;;;;5012940;28;20033;-75
2023/07/04 05:49:05;;;;;;;23.17;8.65;;;19.10;99.90;;;;;;5014786;28;20056;-75
2023/07/04 05:51:31;;;;;;;14.90;7.25;;;19.20;99.90;;;;;;5014790;28;20038;-74
2023/07/04 05:53:57;;;;;;;17.38;7.72;;;19.20;99.90;;;;;;5014016;28;20044;-75
2023/07/04 05:56:25;;;;;;;16.42;7.57;;;19.20;99.90;;;;;;5013746;28;20403;-75
2023/07/04 05:58:53;;;;;;;14.50;7.38;;;19.20;99.90;;;;;;5013733;28;20030;-75
2023/07/04 06:01:21;;;;;;;18.17;7.93;;;19.20;99.90;;;;;;5014237;28;20034;-75
2023/07/04 06:03:47;;;;;;;18.58;8.38;;;19.30;99.90;;;;;;5013381;28;20026;-75
2023/07/04 06:06:31;;;;;;;17.08;8.35;;;19.30;99.90;;;;;;5013317;28;20041;-75
2023/07/04 06:08:58;;;;;;;14.65;8.90;;;19.30;99.90;;;;;;5014686;28;20026;-75
2023/07/04 06:11:26;;;;;;;15.45;9.50;;;19.40;99.90;;;;;;5013311;28;20419;-75
2023/07/04 06:13:53;;;;;;;15.95;9.30;;;19.30;99.90;;;;;;5015117;28;20038;-75
2023/07/04 06:16:19;;;;;;;20.42;9.65;;;19.30;99.90;;;;;;5012784;28;20399;-75
2023/07/04 06:18:46;;;;;;;15.50;9.15;;;19.30;99.90;;;;;;5014672;28;20033;-75
2023/07/04 06:21:20;;;;;;;21.05;10.38;;;19.40;99.90;;;;;;5013318;28;20033;-75
2023/07/04 06:23:46;;;;;;;14.73;9.38;;;19.40;99.90;;;;;;5014554;28;20026;-75
2023/07/04 06:26:12;;;;;;;17.02;9.82;;;19.40;99.90;;;;;;5014288;28;20026;-75
2023/07/04 06:28:39;;;;;;;29.33;11.10;;;19.50;99.90;;;;;;5014518;28;20475;-75
2023/07/04 06:31:06;;;;;;;20.60;10.30;;;19.60;99.90;;;;;;5014191;28;20461;-75
2023/07/04 06:33:32;;;;;;;20.10;9.95;;;19.70;99.90;;;;;;5014037;28;20026;-75
2023/07/04 06:35:58;;;;;;;25.52;10.55;;;19.60;99.90;;;;;;5014004;28;20049;-75
2023/07/04 06:38:25;;;;;;;19.27;10.55;;;19.60;99.90;;;;;;5014341;28;20033;-75
2023/07/04 06:41:01;;;;;;;17.17;8.88;;;19.70;99.90;;;;;;5045628;28;20387;-75
2023/07/04 06:43:29;;;;;;;19.88;10.20;;;19.80;99.90;;;;;;5014550;28;20038;-74
2023/07/04 06:45:55;;;;;;;19.75;9.10;;;19.80;99.90;;;;;;5013522;28;20037;-75
2023/07/04 06:48:22;;;;;;;16.92;9.98;;;19.80;99.90;;;;;;5013178;28;20021;-75
2023/07/04 06:51:01;;;;;;;21.33;9.73;;;19.80;99.90;;;;;;5013712;28;20049;-75
2023/07/04 06:53:27;;;;;;;21.10;9.98;;;19.90;99.90;;;;;;5014091;28;20034;-75
2023/07/04 06:55:53;;;;;;;23.73;10.95;;;20.00;99.90;;;;;;5013877;28;20049;-74
2023/07/04 06:58:20;;;;;;;17.23;9.32;;;20.10;99.90;;;;;;5029082;28;20030;-75
2023/07/04 07:00:46;;;;;;;19.27;9.88;;;20.20;99.90;;;;;;5013035;28;20034;-74
2023/07/04 07:03:12;;;;;;;19.17;10.15;;;20.10;99.90;;;;;;5013473;28;20026;-75
2023/07/04 07:05:39;;;;;;;15.95;10.38;;;20.20;99.90;;;;;;5013522;28;20037;-75
2023/07/04 07:08:05;;;;;;;17.75;10.48;;;20.10;99.90;;;;;;5013704;28;20455;-75
2023/07/04 07:10:37;;;;;;;18.50;10.43;;;20.10;99.90;;;;;;5013495;28;20033;-75
2023/07/04 07:13:04;;;;;;;23.33;13.63;;;20.10;99.90;;;;;;5013668;28;20033;-75
2023/07/04 07:15:30;;;;;;;19.08;10.80;;;20.10;99.90;;;;;;5013015;28;20057;-75
2023/07/04 07:17:56;;;;;;;14.65;11.57;;;20.10;99.90;;;;;;5012944;28;20038;-74
2023/07/04 07:20:22;;;;;;;16.05;10.13;;;20.20;99.90;;;;;;5012959;28;20379;-76
2023/07/04 07:22:48;;;;;;;18.15;9.15;;;20.20;99.90;;;;;;5013431;28;20463;-75
2023/07/04 07:25:14;;;;;;;20.08;9.07;;;20.10;99.90;;;;;;5013262;28;20045;-75
2023/07/04 07:27:40;;;;;;;17.55;9.05;;;20.20;99.90;;;;;;5013529;28;20041;-75
2023/07/04 07:30:07;;;;;;;15.88;8.93;;;20.10;99.90;;;;;;5012961;28;20375;-75
2023/07/04 07:32:33;;;;;;;16.20;9.82;;;20.20;99.90;;;;;;5012817;28;20042;-75
2023/07/04 07:34:59;;;;;;;18.88;9.82;;;20.20;99.90;;;;;;5013249;28;20037;-75
2023/07/04 07:37:25;;;;;;;15.68;8.88;;;20.30;99.90;;;;;;5011567;28;20035;-75
2023/07/04 07:39:51;;;;;;;20.95;9.70;;;20.30;99.90;;;;;;4993536;28;20030;-75
2023/07/04 07:42:17;;;;;;;15.55;9.10;;;20.30;99.90;;;;;;5010635;28;20045;-75
2023/07/04 07:44:43;;;;;;;21.08;11.32;;;20.40;99.90;;;;;;5012832;28;20030;-75
2023/07/04 07:47:10;;;;;;;16.92;10.98;;;20.50;99.90;;;;;;5027587;28;20041;-75
2023/07/04 07:49:37;;;;;;;15.50;11.45;;;20.50;99.90;;;;;;5012802;28;20498;-75
2023/07/04 07:52:03;;;;;;;17.27;10.88;;;20.50;99.90;;;;;;5012638;28;20037;-76
2023/07/04 07:54:29;;;;;;;14.20;12.75;;;20.50;99.90;;;;;;5013060;28;20042;-76
2023/07/04 07:56:55;;;;;;;17.77;12.00;;;20.40;99.90;;;;;;5012628;28;20053;-75
2023/07/04 07:59:21;;;;;;;17.48;13.10;;;20.40;99.90;;;;;;5011576;28;20038;-75
2023/07/04 08:01:47;;;;;;;19.88;11.35;;;20.40;99.90;;;;;;5012215;28;20491;-76
2023/07/04 08:04:14;;;;;;;14.77;10.73;;;20.40;99.90;;;;;;5012871;28;20033;-75
2023/07/04 08:06:42;;;;;;;17.20;10.90;;;20.40;99.90;;;;;;5012487;28;20034;-75
2023/07/04 08:09:10;;;;;;;20.27;9.40;;;20.40;99.90;;;;;;5012671;28;20026;-75
2023/07/04 08:11:37;;;;;;;20.73;10.13;;;20.40;99.90;;;;;;5012495;28;20030;-76
2023/07/04 08:14:03;;;;;;;19.40;11.05;;;20.40;99.90;;;;;;5012409;28;20034;-74
2023/07/04 08:16:41;;;;;;;19.02;10.80;;;20.50;99.90;;;;;;5011846;28;20050;-75
2023/07/04 08:19:07;;;;;;;16.40;10.30;;;20.60;99.90;;;;;;5012587;28;20378;-75
2023/07/04 08:21:34;;;;;;;19.45;11.13;;;20.60;99.90;;;;;;5012415;28;20033;-75
2023/07/04 08:24:00;;;;;;;24.38;11.63;;;20.60;99.90;;;;;;5012675;28;20037;-75
2023/07/04 08:26:26;;;;;;;13.43;10.05;;;20.70;99.90;;;;;;5012531;28;20029;-75
2023/07/04 08:28:53;;;;;;;19.42;12.27;;;20.80;99.90;;;;;;5012027;28;20026;-75
2023/07/04 08:31:19;;;;;;;21.73;12.30;;;20.80;99.90;;;;;;5026976;28;20038;-75
2023/07/04 08:33:46;;;;;;;18.33;10.70;;;20.70;99.90;;;;;;5012332;28;20048;-75
2023/07/04 08:36:12;;;;;;;17.48;10.00;;;20.70;99.90;;;;;;5011978;28;20528;-75
2023/07/04 08:38:38;;;;;;;18.52;11.50;;;20.70;99.90;;;;;;5043842;28;20475;-75
2023/07/04 08:41:19;;;;;;;19.42;11.27;;;20.70;99.90;;;;;;5043938;28;20539;-75
2023/07/04 08:43:58;;;;;;;21.38;12.50;;;20.70;99.90;;;;;;5025933;28;20045;-76
2023/07/04 08:46:24;;;;;;;17.77;10.07;;;20.70;99.90;;;;;;5042006;28;20053;-76
2023/07/04 08:48:50;;;;;;;14.52;10.60;;;20.70;99.90;;;;;;5012150;28;20022;-76
2023/07/04 08:51:32;;;;;;;13.13;9.65;;;20.70;99.90;;;;;;5010945;28;20038;-75
2023/07/04 08:53:58;;;;;;;14.73;9.50;;;20.60;99.90;;;;;;5011361;28;20382;-75
2023/07/04 08:56:37;;;;;;;17.05;10.68;;;20.50;99.90;;;;;;5010873;28;20397;-75
2023/07/04 08:59:05;;;;;;;15.90;10.00;;;20.60;99.90;;;;;;5027186;28;20026;-75
2023/07/04 09:01:37;;;;;;;17.67;9.32;;;20.60;99.90;;;;;;5011817;28;20049;-75
2023/07/04 09:04:20;;;;;;;15.65;10.63;;;20.60;99.90;;;;;;5012257;28;20030;-75
2023/07/04 09:06:58;;;;;;;15.32;10.18;;;20.70;99.90;;;;;;5027173;28;20495;-75
2023/07/04 09:09:36;;;;;;;17.23;9.77;;;20.80;99.90;;;;;;5026267;28;20026;-75
2023/07/04 09:12:02;;;;;;;16.75;10.02;;;20.80;99.90;;;;;;5013347;28;20050;-75
2023/07/04 09:14:51;;;;;;;20.95;10.93;;;20.90;99.90;;;;;;5031169;28;20383;-75
2023/07/04 09:17:26;;;;;;;15.10;10.52;;;21.10;99.90;;;;;;5015134;28;20495;-75
2023/07/04 09:19:52;;;;;;;18.77;16.08;;;21.20;99.90;;;;;;5030218;28;20383;-75
2023/07/04 09:22:19;;;;;;;18.48;16.65;;;21.30;99.90;;;;;;5030662;28;20030;-75
2023/07/04 09:24:48;;;;;;;17.90;16.02;;;21.40;99.90;;;;;;5031025;28;20026;-75
2023/07/04 09:27:14;;;;;;;17.33;15.65;;;21.50;99.90;;;;;;5014789;28;20045;-76
2023/07/04 09:29:40;;;;;;;18.15;15.63;;;21.60;99.90;;;;;;5030835;28;20026;-75
2023/07/04 09:32:07;;;;;;;15.10;13.70;;;21.60;99.90;;;;;;5014884;28;20407;-76
2023/07/04 09:34:38;;;;;;;14.88;13.60;;;21.60;99.90;;;;;;5030693;28;20030;-75
2023/07/04 09:37:14;;;;;;;15.10;13.70;;;21.50;99.90;;;;;;5015190;28;20076;-75
2023/07/04 09:39:47;;;;;;;15.75;14.07;;;21.50;99.90;;;;;;5015903;28;20487;-75
2023/07/04 09:42:14;;;;;;;15.20;13.38;;;21.60;99.90;;;;;;5014520;28;20056;-76
2023/07/04 09:44:41;;;;;;;14.95;13.73;;;21.60;99.90;;;;;;5030554;28;20424;-75
2023/07/04 09:47:24;;;;;;;14.25;12.95;;;21.60;99.90;;;;;;5029769;28;20045;-75
2023/07/04 09:50:11;;;;;;;14.07;12.63;;;21.50;99.90;;;;;;5009886;28;20066;-75
2023/07/04 09:52:38;;;;;;;15.95;14.55;;;21.50;99.90;;;;;;4995689;28;20038;-75
2023/07/04 09:55:26;;;;;;;15.65;14.13;;;21.60;99.90;;;;;;4995738;28;20030;-75
2023/07/04 09:57:52;;;;;;;15.18;13.93;;;21.80;99.90;;;;;;5026694;28;20377;-75
2023/07/04 10:00:23;;;;;;;12.63;11.18;;;21.80;99.90;;;;;;4995952;28;20033;-75
2023/07/04 10:02:54;;;;;;;13.30;11.77;;;21.90;99.90;;;;;;5015212;28;20042;-75
2023/07/04 10:05:30;;;;;;;13.57;12.07;;;21.90;99.90;;;;;;5029294;28;20046;-76
2023/07/04 10:08:00;;;;;;;13.45;11.05;;;21.80;99.90;;;;;;5015618;28;20545;-75
2023/07/04 10:10:26;;;;;;;14.73;10.67;;;21.90;99.90;;;;;;5014455;28;20379;-74
2023/07/04 10:12:52;;;;;;;12.68;11.20;;;21.90;99.90;;;;;;5029911;28;20387;-74
2023/07/04 10:15:26;;;;;;;12.45;10.93;;;21.90;99.90;;;;;;5014134;28;20467;-75
2023/07/04 10:17:52;;;;;;;11.65;10.10;;;21.90;99.90;;;;;;5013410;28;20061;-75
2023/07/04 10:20:18;;;;;;;18.13;16.58;;;21.70;99.90;;;;;;5029662;28;20033;-75
2023/07/04 10:22:52;;;;;;;11.15;9.98;;;21.70;99.90;;;;;;5013749;28;20026;-75
2023/07/04 10:25:21;;;;;;;12.48;11.18;;;21.70;99.90;;;;;;5013166;28;20041;-75
2023/07/04 10:27:50;;;;;;;16.95;15.77;;;21.60;99.90;;;;;;5014736;28;20033;-75
2023/07/04 10:30:18;;;;;;;10.75;9.85;;;21.70;99.90;;;;;;5028879;28;20037;-75
2023/07/04 10:33:15;;;;;;;10.73;9.63;;;21.70;99.90;;;;;;5029477;28;20022;-75
2023/07/04 10:35:42;;;;;;;15.60;14.32;;;21.50;99.90;;;;;;5028271;28;20062;-75
2023/07/04 10:38:37;;;;;;;14.77;13.63;;;21.60;99.90;;;;;;5046165;28;20038;-74
2023/07/04 10:41:14;;;;;;;9.10;8.30;;;21.60;99.90;;;;;;5012424;28;20038;-75
2023/07/04 10:43:42;;;;;;;9.02;8.32;;;21.60;99.90;;;;;;5013047;28;20447;-75
2023/07/04 10:46:08;;;;;;;7.85;7.25;;;21.60;99.90;;;;;;5011838;28;20419;-75
2023/07/04 10:48:35;;;;;;;7.93;7.43;;;21.70;99.90;;;;;;5012804;28;20030;-75
2023/07/04 10:51:21;;;;;;;8.18;7.68;;;21.70;99.90;;;;;;5011724;28;20057;-75
2023/07/04 10:53:47;;;;;;;7.88;7.38;;;21.70;99.90;;;;;;5040779;28;20049;-75
2023/07/04 10:56:30;;;;;;;7.63;7.00;;;21.70;99.90;;;;;;5013794;28;20045;-75
2023/07/04 10:59:13;;;;;;;8.15;7.65;;;21.70;99.90;;;;;;5012612;28;20045;-75
2023/07/04 11:01:41;;;;;;;9.57;8.98;;;21.60;99.90;;;;;;5012029;28;20506;-74
2023/07/04 11:04:28;;;;;;;9.52;8.93;;;21.70;99.90;;;;;;5013839;28;20029;-75
2023/07/04 11:07:04;;;;;;;8.65;8.15;;;21.80;99.90;;;;;;5012382;28;20025;-75
2023/07/04 11:09:38;;;;;;;8.20;7.70;;;21.90;99.90;;;;;;5011953;28;20630;-74
2023/07/04 11:12:05;;;;;;;11.65;11.00;;;22.00;99.90;;;;;;5012171;28;20037;-75
2023/07/04 11:14:33;;;;;;;10.60;10.00;;;22.30;99.90;;;;;;5028615;28;20498;-75
2023/07/04 11:17:03;;;;;;;13.77;12.98;;;22.50;99.90;;;;;;5027826;28;20053;-75
2023/07/04 11:19:30;;;;;;;14.63;13.73;;;22.60;99.90;;;;;;5013673;28;20042;-75
2023/07/04 11:22:05;;;;;;;15.32;14.50;;;22.60;99.90;;;;;;5013367;28;20045;-75
2023/07/04 11:25:03;;;;;;;15.77;14.90;;;22.70;99.90;;;;;;5013114;28;20490;-75
2023/07/04 11:27:29;;;;;;;14.90;14.00;;;22.90;99.90;;;;;;5015647;28;20038;-76
2023/07/04 11:30:00;;;;;;;17.50;16.60;;;22.90;99.90;;;;;;5013422;28;20021;-76
2023/07/04 11:32:38;;;;;;;19.23;18.23;;;23.00;99.90;;;;;;4991590;28;20038;-75
2023/07/04 11:35:10;;;;;;;18.10;17.17;;;23.10;99.90;;;;;;4993039;28;20503;-75
2023/07/04 11:37:43;;;;;;;22.42;21.23;;;23.10;99.90;;;;;;4993087;28;20042;-74
2023/07/04 11:40:43;;;;;;;24.52;23.17;;;23.10;99.90;;;;;;5008886;28;20042;-76
2023/07/04 11:43:24;;;;;;;27.38;25.67;;;23.10;99.90;;;;;;4974641;28;20038;-75
2023/07/04 11:45:53;;;;;;;27.75;26.38;;;23.20;99.90;;;;;;4989252;28;20037;-75
2023/07/04 11:48:19;;;;;;;28.35;26.85;;;23.00;99.90;;;;;;5007298;28;20045;-75
2023/07/04 11:50:49;;;;;;;29.40;27.90;;;23.00;99.90;;;;;;4974364;28;20038;-75
2023/07/04 11:53:17;;;;;;;30.45;28.75;;;23.10;99.90;;;;;;4974946;28;20050;-75
2023/07/04 11:55:43;;;;;;;30.92;29.35;;;23.10;99.90;;;;;;4990589;28;20061;-75
2023/07/04 11:58:09;;;;;;;31.65;30.05;;;23.10;99.90;;;;;;4991014;28;20506;-75
2023/07/04 12:00:36;;;;;;;30.55;29.02;;;23.20;99.90;;;;;;4990485;28;20506;-75
2023/07/04 12:03:16;;;;;;;31.40;29.80;;;23.20;99.90;;;;;;4991067;28;20038;-75
2023/07/04 12:05:46;;;;;;;;;;;23.20;99.90;;;;;;4990360;28;20050;-75
2023/07/04 12:08:19;;;;;;;28.20;26.83;;;23.20;99.90;;;;;;4974699;28;19923;-74
2023/07/04 12:10:46;;;;;;;26.15;24.85;;;23.20;99.90;;;;;;4974594;28;20038;-74
2023/07/04 12:13:14;;;;;;;24.27;23.08;;;23.20;99.90;;;;;;4990130;28;20035;-75
2023/07/04 12:15:41;;;;;;;19.90;18.80;;;23.20;99.90;;;;;;4958237;28;20030;-76
2023/07/04 12:18:15;;;;;;;19.70;18.67;;;23.10;99.90;;;;;;4974760;28;20053;-75
2023/07/04 12:20:42;;;;;;;21.30;20.30;;;23.10;99.90;;;;;;4991828;28;20030;-75
2023/07/04 12:23:09;;;;;;;18.00;17.02;;;23.10;99.90;;;;;;4991621;28;20042;-75
2023/07/04 12:25:46;;;;;;;16.20;15.40;;;23.20;99.90;;;;;;4991827;28;20018;-76
2023/07/04 12:28:13;;;;;;;19.55;18.55;;;23.30;99.90;;;;;;4992750;28;20038;-75
2023/07/04 12:30:52;;;;;;;17.55;16.60;;;23.40;99.90;;;;;;4997411;28;20406;-75
2023/07/04 12:33:22;;;;;;;19.00;18.00;;;23.60;99.90;;;;;;5044555;28;20033;-76
2023/07/04 12:35:55;;;;;;;17.45;16.48;;;23.70;99.90;;;;;;5011853;28;20383;-75
2023/07/04 12:38:28;;;;;;;19.05;17.85;;;23.80;99.90;;;;;;5041880;28;20041;-75
2023/07/04 12:40:56;;;;;;;22.27;21.17;;;24.00;99.90;;;;;;5043825;28;20041;-76